sensor_id;sensor_type;location;lat;lon;timestamp;temperature;humidity
40059;SHT31;25763;49.972;8.568;2023-01-28T00:01:27;3.39;81.32
40059;SHT31;25763;49.972;8.568;2023-01-28T00:03:52;3.31;81.46
40059;SHT31;25763;49.972;8.568;2023-01-28T00:06:17;3.26;81.49
40059;SHT31;25763;49.972;8.568;2023-01-28T00:08:43;3.27;81.59
40059;SHT31;25763;49.972;8.568;2023-01-28T00:11:10;3.27;81.55
40059;SHT31;25763;49.972;8.568;2023-01-28T00:13:36;3.24;81.49
40059;SHT31;25763;49.972;8.568;2023-01-28T00:16:03;3.24;81.52
40059;SHT31;25763;49.972;8.568;2023-01-28T00:18:30;3.24;81.48
40059;SHT31;25763;49.972;8.568;2023-01-28T00:23:31;3.27;81.40
40059;SHT31;25763;49.972;8.568;2023-01-28T00:25:59;3.26;81.28
40059;SHT31;25763;49.972;8.568;2023-01-28T00:28:24;3.27;81.28
40059;SHT31;25763;49.972;8.568;2023-01-28T00:30:50;3.31;81.26
40059;SHT31;25763;49.972;8.568;2023-01-28T00:33:15;3.36;81.39
40059;SHT31;25763;49.972;8.568;2023-01-28T00:35:41;3.27;81.17
40059;SHT31;25763;49.972;8.568;2023-01-28T00:38:06;3.23;81.08
40059;SHT31;25763;49.972;8.568;2023-01-28T00:40:33;3.24;81.16
40059;SHT31;25763;49.972;8.568;2023-01-28T00:42:58;3.22;81.18
40059;SHT31;25763;49.972;8.568;2023-01-28T00:45:23;3.17;81.20
40059;SHT31;25763;49.972;8.568;2023-01-28T00:47:49;3.23;81.31
40059;SHT31;25763;49.972;8.568;2023-01-28T00:50:14;3.16;81.09
40059;SHT31;25763;49.972;8.568;2023-01-28T00:52:40;3.09;81.12
40059;SHT31;25763;49.972;8.568;2023-01-28T00:55:06;3.16;81.21
40059;SHT31;25763;49.972;8.568;2023-01-28T00:57:31;3.20;81.20
40059;SHT31;25763;49.972;8.568;2023-01-28T00:59:58;3.17;81.03
40059;SHT31;25763;49.972;8.568;2023-01-28T01:02:23;3.22;81.23
40059;SHT31;25763;49.972;8.568;2023-01-28T01:04:49;3.22;80.93
40059;SHT31;25763;49.972;8.568;2023-01-28T01:07:29;3.13;80.96
40059;SHT31;25763;49.972;8.568;2023-01-28T01:10:13;3.12;81.05
40059;SHT31;25763;49.972;8.568;2023-01-28T01:12:39;3.15;81.08
40059;SHT31;25763;49.972;8.568;2023-01-28T01:15:05;3.16;81.04
40059;SHT31;25763;49.972;8.568;2023-01-28T01:17:38;3.07;80.99
40059;SHT31;25763;49.972;8.568;2023-01-28T01:20:05;3.06;81.10
40059;SHT31;25763;49.972;8.568;2023-01-28T01:22:35;3.05;81.10
40059;SHT31;25763;49.972;8.568;2023-01-28T01:25:02;2.98;81.25
40059;SHT31;25763;49.972;8.568;2023-01-28T01:27:28;3.03;81.26
40059;SHT31;25763;49.972;8.568;2023-01-28T01:29:54;3.06;81.23
40059;SHT31;25763;49.972;8.568;2023-01-28T01:32:19;3.03;81.11
40059;SHT31;25763;49.972;8.568;2023-01-28T01:34:46;3.05;81.18
40059;SHT31;25763;49.972;8.568;2023-01-28T01:37:12;3.05;81.44
40059;SHT31;25763;49.972;8.568;2023-01-28T01:39:37;3.06;81.25
40059;SHT31;25763;49.972;8.568;2023-01-28T01:42:03;3.03;81.33
40059;SHT31;25763;49.972;8.568;2023-01-28T01:44:55;3.03;81.11
40059;SHT31;25763;49.972;8.568;2023-01-28T01:47:29;3.03;81.29
40059;SHT31;25763;49.972;8.568;2023-01-28T01:49:57;2.99;81.05
40059;SHT31;25763;49.972;8.568;2023-01-28T01:52:27;2.96;81.21
40059;SHT31;25763;49.972;8.568;2023-01-28T01:54:56;2.91;81.40
40059;SHT31;25763;49.972;8.568;2023-01-28T01:57:28;2.96;81.55
40059;SHT31;25763;49.972;8.568;2023-01-28T01:59:55;3.03;81.45
40059;SHT31;25763;49.972;8.568;2023-01-28T02:02:32;2.96;81.34
40059;SHT31;25763;49.972;8.568;2023-01-28T02:04:59;3.00;81.43
40059;SHT31;25763;49.972;8.568;2023-01-28T02:07:25;2.98;81.44
40059;SHT31;25763;49.972;8.568;2023-01-28T02:09:51;2.87;81.77
40059;SHT31;25763;49.972;8.568;2023-01-28T02:12:20;2.88;81.88
40059;SHT31;25763;49.972;8.568;2023-01-28T02:14:53;2.80;82.33
40059;SHT31;25763;49.972;8.568;2023-01-28T02:17:20;2.68;83.04
40059;SHT31;25763;49.972;8.568;2023-01-28T02:19:59;2.71;83.49
40059;SHT31;25763;49.972;8.568;2023-01-28T02:25:36;2.78;83.55
40059;SHT31;25763;49.972;8.568;2023-01-28T02:30:46;2.74;83.27
40059;SHT31;25763;49.972;8.568;2023-01-28T02:33:38;2.74;83.27
40059;SHT31;25763;49.972;8.568;2023-01-28T02:36:14;2.68;83.23
40059;SHT31;25763;49.972;8.568;2023-01-28T02:38:47;2.77;83.36
40059;SHT31;25763;49.972;8.568;2023-01-28T02:41:29;2.80;83.28
40059;SHT31;25763;49.972;8.568;2023-01-28T02:43:56;2.74;83.18
40059;SHT31;25763;49.972;8.568;2023-01-28T02:49:09;2.70;83.45
40059;SHT31;25763;49.972;8.568;2023-01-28T02:54:41;2.82;83.54
40059;SHT31;25763;49.972;8.568;2023-01-28T02:59:48;2.89;83.40
40059;SHT31;25763;49.972;8.568;2023-01-28T03:02:30;2.87;83.40
40059;SHT31;25763;49.972;8.568;2023-01-28T03:07:37;2.91;83.31
40059;SHT31;25763;49.972;8.568;2023-01-28T03:10:05;2.92;83.38
40059;SHT31;25763;49.972;8.568;2023-01-28T03:12:32;2.95;83.45
40059;SHT31;25763;49.972;8.568;2023-01-28T03:15:19;2.91;83.28
40059;SHT31;25763;49.972;8.568;2023-01-28T03:18:06;2.92;83.23
40059;SHT31;25763;49.972;8.568;2023-01-28T03:21:09;2.99;83.21
40059;SHT31;25763;49.972;8.568;2023-01-28T03:23:59;2.99;83.19
40059;SHT31;25763;49.972;8.568;2023-01-28T03:29:41;2.98;83.01
40059;SHT31;25763;49.972;8.568;2023-01-28T03:32:26;3.02;82.99
40059;SHT31;25763;49.972;8.568;2023-01-28T03:35:14;2.95;82.98
40059;SHT31;25763;49.972;8.568;2023-01-28T03:37:59;2.85;83.07
40059;SHT31;25763;49.972;8.568;2023-01-28T03:40:25;2.85;83.27
40059;SHT31;25763;49.972;8.568;2023-01-28T03:42:52;2.88;83.28
40059;SHT31;25763;49.972;8.568;2023-01-28T03:45:18;2.95;83.21
40059;SHT31;25763;49.972;8.568;2023-01-28T03:47:45;2.88;83.31
40059;SHT31;25763;49.972;8.568;2023-01-28T03:50:11;2.91;83.33
40059;SHT31;25763;49.972;8.568;2023-01-28T03:52:36;2.77;83.46
40059;SHT31;25763;49.972;8.568;2023-01-28T03:55:01;2.84;83.64
40059;SHT31;25763;49.972;8.568;2023-01-28T03:57:37;2.81;83.77
40059;SHT31;25763;49.972;8.568;2023-01-28T04:00:03;2.71;83.75
40059;SHT31;25763;49.972;8.568;2023-01-28T04:02:28;2.77;83.95
40059;SHT31;25763;49.972;8.568;2023-01-28T04:04:54;2.82;83.92
40059;SHT31;25763;49.972;8.568;2023-01-28T04:07:20;2.78;83.80
40059;SHT31;25763;49.972;8.568;2023-01-28T04:09:45;2.75;83.69
40059;SHT31;25763;49.972;8.568;2023-01-28T04:12:11;2.81;83.72
40059;SHT31;25763;49.972;8.568;2023-01-28T04:14:36;2.80;83.70
40059;SHT31;25763;49.972;8.568;2023-01-28T04:17:04;2.77;83.64
40059;SHT31;25763;49.972;8.568;2023-01-28T04:19:31;2.72;83.53
40059;SHT31;25763;49.972;8.568;2023-01-28T04:22:03;2.74;83.63
40059;SHT31;25763;49.972;8.568;2023-01-28T04:24:28;2.75;83.71
40059;SHT31;25763;49.972;8.568;2023-01-28T04:26:54;2.65;83.57
40059;SHT31;25763;49.972;8.568;2023-01-28T04:29:19;2.71;83.64
40059;SHT31;25763;49.972;8.568;2023-01-28T04:31:44;2.71;83.80
40059;SHT31;25763;49.972;8.568;2023-01-28T04:34:10;2.78;83.77
40059;SHT31;25763;49.972;8.568;2023-01-28T04:36:35;2.74;83.86
40059;SHT31;25763;49.972;8.568;2023-01-28T04:39:00;2.67;83.89
40059;SHT31;25763;49.972;8.568;2023-01-28T04:41:26;2.74;83.85
40059;SHT31;25763;49.972;8.568;2023-01-28T04:43:51;2.64;83.81
40059;SHT31;25763;49.972;8.568;2023-01-28T04:46:16;2.70;83.70
40059;SHT31;25763;49.972;8.568;2023-01-28T04:48:42;2.60;83.49
40059;SHT31;25763;49.972;8.568;2023-01-28T04:51:07;2.57;83.41
40059;SHT31;25763;49.972;8.568;2023-01-28T04:53:33;2.63;83.20
40059;SHT31;25763;49.972;8.568;2023-01-28T04:55:58;2.70;83.14
40059;SHT31;25763;49.972;8.568;2023-01-28T04:58:24;2.75;83.07
40059;SHT31;25763;49.972;8.568;2023-01-28T05:00:54;2.71;82.72
40059;SHT31;25763;49.972;8.568;2023-01-28T05:03:20;2.75;82.77
40059;SHT31;25763;49.972;8.568;2023-01-28T05:05:45;2.75;82.64
40059;SHT31;25763;49.972;8.568;2023-01-28T05:08:10;2.81;82.53
40059;SHT31;25763;49.972;8.568;2023-01-28T05:10:36;2.77;82.31
40059;SHT31;25763;49.972;8.568;2023-01-28T05:13:01;2.74;82.34
40059;SHT31;25763;49.972;8.568;2023-01-28T05:15:26;2.81;82.38
40059;SHT31;25763;49.972;8.568;2023-01-28T05:17:54;2.78;82.15
40059;SHT31;25763;49.972;8.568;2023-01-28T05:20:20;2.80;82.00
40059;SHT31;25763;49.972;8.568;2023-01-28T05:22:45;2.80;81.91
40059;SHT31;25763;49.972;8.568;2023-01-28T05:25:11;2.78;81.56
40059;SHT31;25763;49.972;8.568;2023-01-28T05:27:36;2.72;80.88
40059;SHT31;25763;49.972;8.568;2023-01-28T05:30:01;2.64;80.80
40059;SHT31;25763;49.972;8.568;2023-01-28T05:32:27;2.74;80.99
40059;SHT31;25763;49.972;8.568;2023-01-28T05:34:52;2.72;80.83
40059;SHT31;25763;49.972;8.568;2023-01-28T05:37:17;2.78;81.00
40059;SHT31;25763;49.972;8.568;2023-01-28T05:39:43;2.75;80.94
40059;SHT31;25763;49.972;8.568;2023-01-28T05:42:08;2.75;80.76
40059;SHT31;25763;49.972;8.568;2023-01-28T05:44:33;2.70;80.32
40059;SHT31;25763;49.972;8.568;2023-01-28T05:47:00;2.71;80.55
40059;SHT31;25763;49.972;8.568;2023-01-28T05:49:25;2.74;80.61
40059;SHT31;25763;49.972;8.568;2023-01-28T05:51:51;2.72;80.35
40059;SHT31;25763;49.972;8.568;2023-01-28T05:54:17;2.74;80.20
40059;SHT31;25763;49.972;8.568;2023-01-28T05:56:42;2.78;80.39
40059;SHT31;25763;49.972;8.568;2023-01-28T05:59:10;2.72;79.90
40059;SHT31;25763;49.972;8.568;2023-01-28T06:01:35;2.68;79.72
40059;SHT31;25763;49.972;8.568;2023-01-28T06:04:01;2.72;80.16
40059;SHT31;25763;49.972;8.568;2023-01-28T06:06:26;2.71;79.97
40059;SHT31;25763;49.972;8.568;2023-01-28T06:08:51;2.72;80.02
40059;SHT31;25763;49.972;8.568;2023-01-28T06:11:17;2.81;80.20
40059;SHT31;25763;49.972;8.568;2023-01-28T06:13:42;2.71;79.81
40059;SHT31;25763;49.972;8.568;2023-01-28T06:16:07;2.64;79.71
40059;SHT31;25763;49.972;8.568;2023-01-28T06:18:33;2.71;79.73
40059;SHT31;25763;49.972;8.568;2023-01-28T06:20:59;2.63;79.72
40059;SHT31;25763;49.972;8.568;2023-01-28T06:23:25;2.67;80.04
40059;SHT31;25763;49.972;8.568;2023-01-28T06:25:56;2.63;79.67
40059;SHT31;25763;49.972;8.568;2023-01-28T06:28:22;2.67;79.82
40059;SHT31;25763;49.972;8.568;2023-01-28T06:30:49;2.65;79.64
40059;SHT31;25763;49.972;8.568;2023-01-28T06:33:14;2.67;79.51
40059;SHT31;25763;49.972;8.568;2023-01-28T06:35:40;2.63;79.42
40059;SHT31;25763;49.972;8.568;2023-01-28T06:38:06;2.65;79.63
40059;SHT31;25763;49.972;8.568;2023-01-28T06:40:31;2.70;79.57
40059;SHT31;25763;49.972;8.568;2023-01-28T06:42:56;2.72;79.82
40059;SHT31;25763;49.972;8.568;2023-01-28T06:45:22;2.75;79.87
40059;SHT31;25763;49.972;8.568;2023-01-28T06:47:47;2.77;79.92
40059;SHT31;25763;49.972;8.568;2023-01-28T06:50:12;2.71;79.36
40059;SHT31;25763;49.972;8.568;2023-01-28T06:52:38;2.67;79.22
40059;SHT31;25763;49.972;8.568;2023-01-28T06:55:04;2.64;79.28
40059;SHT31;25763;49.972;8.568;2023-01-28T06:57:29;2.63;79.34
40059;SHT31;25763;49.972;8.568;2023-01-28T06:59:54;2.70;79.36
40059;SHT31;25763;49.972;8.568;2023-01-28T07:02:20;2.71;79.37
40059;SHT31;25763;49.972;8.568;2023-01-28T07:04:45;2.71;79.41
40059;SHT31;25763;49.972;8.568;2023-01-28T07:07:10;2.68;78.90
40059;SHT31;25763;49.972;8.568;2023-01-28T07:09:36;2.67;78.93
40059;SHT31;25763;49.972;8.568;2023-01-28T07:12:01;2.63;78.86
40059;SHT31;25763;49.972;8.568;2023-01-28T07:14:29;2.70;78.88
40059;SHT31;25763;49.972;8.568;2023-01-28T07:16:55;2.71;78.89
40059;SHT31;25763;49.972;8.568;2023-01-28T07:19:20;2.74;79.03
40059;SHT31;25763;49.972;8.568;2023-01-28T07:21:46;2.68;78.79
40059;SHT31;25763;49.972;8.568;2023-01-28T07:24:11;2.64;78.62
40059;SHT31;25763;49.972;8.568;2023-01-28T07:26:36;2.63;78.67
40059;SHT31;25763;49.972;8.568;2023-01-28T07:29:02;2.65;79.10
40059;SHT31;25763;49.972;8.568;2023-01-28T07:31:27;2.71;78.79
40059;SHT31;25763;49.972;8.568;2023-01-28T07:33:53;2.78;79.25
40059;SHT31;25763;49.972;8.568;2023-01-28T07:36:18;2.80;78.49
40059;SHT31;25763;49.972;8.568;2023-01-28T07:38:43;2.80;78.39
40059;SHT31;25763;49.972;8.568;2023-01-28T07:41:09;2.85;78.82
40059;SHT31;25763;49.972;8.568;2023-01-28T07:43:34;2.78;78.23
40059;SHT31;25763;49.972;8.568;2023-01-28T07:46:00;2.78;78.24
40059;SHT31;25763;49.972;8.568;2023-01-28T07:48:26;2.75;78.38
40059;SHT31;25763;49.972;8.568;2023-01-28T07:50:51;2.80;78.28
40059;SHT31;25763;49.972;8.568;2023-01-28T07:53:16;2.85;78.52
40059;SHT31;25763;49.972;8.568;2023-01-28T07:55:42;2.82;78.07
40059;SHT31;25763;49.972;8.568;2023-01-28T07:58:09;2.82;78.00
40059;SHT31;25763;49.972;8.568;2023-01-28T08:00:37;2.85;78.09
40059;SHT31;25763;49.972;8.568;2023-01-28T08:03:10;2.85;78.14
40059;SHT31;25763;49.972;8.568;2023-01-28T08:05:48;2.85;78.05
40059;SHT31;25763;49.972;8.568;2023-01-28T08:08:14;2.87;77.95
40059;SHT31;25763;49.972;8.568;2023-01-28T08:10:40;2.93;78.23
40059;SHT31;25763;49.972;8.568;2023-01-28T08:13:06;2.95;78.11
40059;SHT31;25763;49.972;8.568;2023-01-28T08:15:32;2.87;77.67
40059;SHT31;25763;49.972;8.568;2023-01-28T08:17:58;2.95;77.76
40059;SHT31;25763;49.972;8.568;2023-01-28T08:20:25;3.00;77.75
40059;SHT31;25763;49.972;8.568;2023-01-28T08:22:51;3.05;77.52
40059;SHT31;25763;49.972;8.568;2023-01-28T08:25:17;3.15;77.87
40059;SHT31;25763;49.972;8.568;2023-01-28T08:27:43;3.10;77.29
40059;SHT31;25763;49.972;8.568;2023-01-28T08:30:09;3.07;77.23
40059;SHT31;25763;49.972;8.568;2023-01-28T08:32:35;3.07;77.00
40059;SHT31;25763;49.972;8.568;2023-01-28T08:35:00;3.15;77.01
40059;SHT31;25763;49.972;8.568;2023-01-28T08:37:26;3.15;76.96
40059;SHT31;25763;49.972;8.568;2023-01-28T08:39:51;3.07;76.57
40059;SHT31;25763;49.972;8.568;2023-01-28T08:42:16;3.20;77.15
40059;SHT31;25763;49.972;8.568;2023-01-28T08:44:41;3.16;76.63
40059;SHT31;25763;49.972;8.568;2023-01-28T08:47:07;3.07;76.64
40059;SHT31;25763;49.972;8.568;2023-01-28T08:49:32;3.12;76.57
40059;SHT31;25763;49.972;8.568;2023-01-28T08:51:58;3.12;76.65
40059;SHT31;25763;49.972;8.568;2023-01-28T08:54:23;3.03;76.41
40059;SHT31;25763;49.972;8.568;2023-01-28T08:56:48;3.12;76.91
40059;SHT31;25763;49.972;8.568;2023-01-28T08:59:15;2.98;76.82
40059;SHT31;25763;49.972;8.568;2023-01-28T09:01:41;3.10;76.86
40059;SHT31;25763;49.972;8.568;2023-01-28T09:04:06;3.13;76.39
40059;SHT31;25763;49.972;8.568;2023-01-28T09:06:31;3.03;76.61
40059;SHT31;25763;49.972;8.568;2023-01-28T09:09:00;3.09;76.42
40059;SHT31;25763;49.972;8.568;2023-01-28T09:11:26;3.05;76.02
40059;SHT31;25763;49.972;8.568;2023-01-28T09:13:52;2.99;76.30
40059;SHT31;25763;49.972;8.568;2023-01-28T09:16:17;3.02;76.23
40059;SHT31;25763;49.972;8.568;2023-01-28T09:18:43;2.95;75.92
40059;SHT31;25763;49.972;8.568;2023-01-28T09:21:08;2.96;76.08
40059;SHT31;25763;49.972;8.568;2023-01-28T09:23:37;3.06;76.11
40059;SHT31;25763;49.972;8.568;2023-01-28T09:26:03;2.92;75.78
40059;SHT31;25763;49.972;8.568;2023-01-28T09:28:29;2.95;75.85
40059;SHT31;25763;49.972;8.568;2023-01-28T09:31:05;2.95;76.06
40059;SHT31;25763;49.972;8.568;2023-01-28T09:33:31;3.03;76.12
40059;SHT31;25763;49.972;8.568;2023-01-28T09:36:02;3.00;75.52
40059;SHT31;25763;49.972;8.568;2023-01-28T09:38:29;3.06;75.66
40059;SHT31;25763;49.972;8.568;2023-01-28T09:40:55;3.10;76.01
40059;SHT31;25763;49.972;8.568;2023-01-28T09:46:12;3.09;75.62
40059;SHT31;25763;49.972;8.568;2023-01-28T09:48:50;3.15;75.22
40059;SHT31;25763;49.972;8.568;2023-01-28T09:57:04;3.23;75.36
40059;SHT31;25763;49.972;8.568;2023-01-28T09:59:34;3.31;75.22
40059;SHT31;25763;49.972;8.568;2023-01-28T10:02:18;3.40;75.25
40059;SHT31;25763;49.972;8.568;2023-01-28T10:10:16;3.33;74.69
40059;SHT31;25763;49.972;8.568;2023-01-28T10:15:36;3.69;75.15
40059;SHT31;25763;49.972;8.568;2023-01-28T10:18:10;3.83;74.07
40059;SHT31;25763;49.972;8.568;2023-01-28T10:20:46;3.87;73.68
40059;SHT31;25763;49.972;8.568;2023-01-28T10:23:20;3.79;73.90
40059;SHT31;25763;49.972;8.568;2023-01-28T10:25:47;3.74;74.32
40059;SHT31;25763;49.972;8.568;2023-01-28T10:28:23;3.94;74.68
40059;SHT31;25763;49.972;8.568;2023-01-28T10:30:49;4.06;73.93
40059;SHT31;25763;49.972;8.568;2023-01-28T10:35:53;4.03;72.80
40059;SHT31;25763;49.972;8.568;2023-01-28T10:38:21;3.97;73.31
40059;SHT31;25763;49.972;8.568;2023-01-28T10:40:47;3.59;73.34
40059;SHT31;25763;49.972;8.568;2023-01-28T10:43:19;3.62;73.30
40059;SHT31;25763;49.972;8.568;2023-01-28T10:48:44;4.10;74.09
40059;SHT31;25763;49.972;8.568;2023-01-28T10:51:11;4.00;72.96
40059;SHT31;25763;49.972;8.568;2023-01-28T10:53:40;4.06;73.20
40059;SHT31;25763;49.972;8.568;2023-01-28T10:56:15;3.85;73.10
40059;SHT31;25763;49.972;8.568;2023-01-28T10:58:56;3.72;73.68
40059;SHT31;25763;49.972;8.568;2023-01-28T11:01:24;3.64;73.94
40059;SHT31;25763;49.972;8.568;2023-01-28T11:03:57;3.48;73.94
40059;SHT31;25763;49.972;8.568;2023-01-28T11:06:24;3.52;74.25
40059;SHT31;25763;49.972;8.568;2023-01-28T11:08:50;3.39;74.26
40059;SHT31;25763;49.972;8.568;2023-01-28T11:11:15;3.26;74.25
40059;SHT31;25763;49.972;8.568;2023-01-28T11:13:51;3.46;74.25
40059;SHT31;25763;49.972;8.568;2023-01-28T11:16:18;3.22;74.70
40059;SHT31;25763;49.972;8.568;2023-01-28T11:18:54;3.37;74.57
40059;SHT31;25763;49.972;8.568;2023-01-28T11:21:30;3.48;74.45
40059;SHT31;25763;49.972;8.568;2023-01-28T11:24:05;3.44;74.48
40059;SHT31;25763;49.972;8.568;2023-01-28T11:26:31;3.39;73.73
40059;SHT31;25763;49.972;8.568;2023-01-28T11:28:58;3.46;73.82
40059;SHT31;25763;49.972;8.568;2023-01-28T11:31:24;3.41;73.76
40059;SHT31;25763;49.972;8.568;2023-01-28T11:33:57;3.58;74.17
40059;SHT31;25763;49.972;8.568;2023-01-28T11:36:28;3.62;73.19
40059;SHT31;25763;49.972;8.568;2023-01-28T11:39:23;3.75;73.70
40059;SHT31;25763;49.972;8.568;2023-01-28T11:41:48;4.04;73.86
40059;SHT31;25763;49.972;8.568;2023-01-28T11:44:23;3.85;71.46
40059;SHT31;25763;49.972;8.568;2023-01-28T11:49:52;3.44;72.46
40059;SHT31;25763;49.972;8.568;2023-01-28T11:55:36;3.54;72.62
40059;SHT31;25763;49.972;8.568;2023-01-28T12:00:48;3.58;73.01
40059;SHT31;25763;49.972;8.568;2023-01-28T12:03:49;3.28;71.77
40059;SHT31;25763;49.972;8.568;2023-01-28T12:15:04;3.16;72.15
40059;SHT31;25763;49.972;8.568;2023-01-28T12:17:41;2.93;72.54
40059;SHT31;25763;49.972;8.568;2023-01-28T12:37:20;3.17;72.38
40059;SHT31;25763;49.972;8.568;2023-01-28T12:42:37;2.85;71.55
40059;SHT31;25763;49.972;8.568;2023-01-28T12:45:17;2.95;72.22
40059;SHT31;25763;49.972;8.568;2023-01-28T12:47:57;2.95;71.23
40059;SHT31;25763;49.972;8.568;2023-01-28T12:51:03;2.78;71.75
40059;SHT31;25763;49.972;8.568;2023-01-28T12:53:51;2.91;71.79
40059;SHT31;25763;49.972;8.568;2023-01-28T12:56:22;3.10;72.70
40059;SHT31;25763;49.972;8.568;2023-01-28T13:01:41;3.19;72.99
40059;SHT31;25763;49.972;8.568;2023-01-28T13:04:15;3.03;72.36
40059;SHT31;25763;49.972;8.568;2023-01-28T13:06:53;3.13;72.64
40059;SHT31;25763;49.972;8.568;2023-01-28T13:09:21;3.00;71.88
40059;SHT31;25763;49.972;8.568;2023-01-28T13:11:51;3.06;72.06
40059;SHT31;25763;49.972;8.568;2023-01-28T13:14:18;3.05;71.85
40059;SHT31;25763;49.972;8.568;2023-01-28T13:16:46;3.02;71.45
40059;SHT31;25763;49.972;8.568;2023-01-28T13:21:42;2.85;72.06
40059;SHT31;25763;49.972;8.568;2023-01-28T13:31:44;2.75;71.31
40059;SHT31;25763;49.972;8.568;2023-01-28T13:34:40;2.67;71.11
40059;SHT31;25763;49.972;8.568;2023-01-28T13:37:21;2.77;70.97
40059;SHT31;25763;49.972;8.568;2023-01-28T13:39:51;2.80;71.61
40059;SHT31;25763;49.972;8.568;2023-01-28T13:42:29;2.92;71.54
40059;SHT31;25763;49.972;8.568;2023-01-28T13:44:55;2.85;70.07
40059;SHT31;25763;49.972;8.568;2023-01-28T13:47:32;2.78;70.16
40059;SHT31;25763;49.972;8.568;2023-01-28T13:50:04;2.61;69.92
40059;SHT31;25763;49.972;8.568;2023-01-28T13:52:44;2.67;70.03
40059;SHT31;25763;49.972;8.568;2023-01-28T14:00:24;2.70;69.81
40059;SHT31;25763;49.972;8.568;2023-01-28T14:05:30;2.78;69.20
40059;SHT31;25763;49.972;8.568;2023-01-28T14:18:34;2.65;68.84
40059;SHT31;25763;49.972;8.568;2023-01-28T14:21:08;2.67;69.06
40059;SHT31;25763;49.972;8.568;2023-01-28T14:23:35;2.78;69.37
40059;SHT31;25763;49.972;8.568;2023-01-28T14:26:22;2.82;68.94
40059;SHT31;25763;49.972;8.568;2023-01-28T14:28:59;2.75;68.16
40059;SHT31;25763;49.972;8.568;2023-01-28T14:31:30;2.82;68.75
40059;SHT31;25763;49.972;8.568;2023-01-28T14:36:44;2.93;68.29
40059;SHT31;25763;49.972;8.568;2023-01-28T14:39:15;2.82;67.43
40059;SHT31;25763;49.972;8.568;2023-01-28T14:41:42;2.92;68.48
40059;SHT31;25763;49.972;8.568;2023-01-28T14:44:08;3.06;69.33
40059;SHT31;25763;49.972;8.568;2023-01-28T14:46:45;3.00;67.22
40059;SHT31;25763;49.972;8.568;2023-01-28T14:52:29;2.81;66.17
40059;SHT31;25763;49.972;8.568;2023-01-28T14:57:55;2.52;66.49
40059;SHT31;25763;49.972;8.568;2023-01-28T15:00:28;2.53;66.75
40059;SHT31;25763;49.972;8.568;2023-01-28T15:02:54;2.49;66.47
40059;SHT31;25763;49.972;8.568;2023-01-28T15:05:25;2.56;66.74
40059;SHT31;25763;49.972;8.568;2023-01-28T15:07:51;2.56;66.50
40059;SHT31;25763;49.972;8.568;2023-01-28T15:10:28;2.61;66.77
40059;SHT31;25763;49.972;8.568;2023-01-28T15:12:57;2.65;67.23
40059;SHT31;25763;49.972;8.568;2023-01-28T15:15:35;2.61;65.96
40059;SHT31;25763;49.972;8.568;2023-01-28T15:18:14;2.68;67.12
40059;SHT31;25763;49.972;8.568;2023-01-28T15:20:45;2.65;65.68
40059;SHT31;25763;49.972;8.568;2023-01-28T15:23:14;2.57;65.73
40059;SHT31;25763;49.972;8.568;2023-01-28T15:25:40;2.68;66.32
40059;SHT31;25763;49.972;8.568;2023-01-28T15:28:12;2.71;67.00
40059;SHT31;25763;49.972;8.568;2023-01-28T15:30:45;2.81;67.61
40059;SHT31;25763;49.972;8.568;2023-01-28T15:33:15;2.82;66.96
40059;SHT31;25763;49.972;8.568;2023-01-28T15:35:48;2.74;65.19
40059;SHT31;25763;49.972;8.568;2023-01-28T15:38:14;2.67;65.63
40059;SHT31;25763;49.972;8.568;2023-01-28T15:40:44;2.46;65.24
40059;SHT31;25763;49.972;8.568;2023-01-28T15:43:20;2.57;66.47
40059;SHT31;25763;49.972;8.568;2023-01-28T15:45:47;2.49;65.77
40059;SHT31;25763;49.972;8.568;2023-01-28T15:48:14;2.58;67.26
40059;SHT31;25763;49.972;8.568;2023-01-28T15:50:41;2.57;67.23
40059;SHT31;25763;49.972;8.568;2023-01-28T15:53:10;2.33;65.99
40059;SHT31;25763;49.972;8.568;2023-01-28T15:55:43;2.42;67.16
40059;SHT31;25763;49.972;8.568;2023-01-28T15:58:29;2.56;67.51
40059;SHT31;25763;49.972;8.568;2023-01-28T16:03:33;2.56;66.67
40059;SHT31;25763;49.972;8.568;2023-01-28T16:06:04;2.64;66.97
40059;SHT31;25763;49.972;8.568;2023-01-28T16:08:41;2.60;66.84
40059;SHT31;25763;49.972;8.568;2023-01-28T16:11:09;2.57;67.00
40059;SHT31;25763;49.972;8.568;2023-01-28T16:13:40;2.52;66.56
40059;SHT31;25763;49.972;8.568;2023-01-28T16:16:06;2.49;66.86
40059;SHT31;25763;49.972;8.568;2023-01-28T16:18:41;2.52;66.52
40059;SHT31;25763;49.972;8.568;2023-01-28T16:21:10;2.64;68.18
40059;SHT31;25763;49.972;8.568;2023-01-28T16:23:37;2.52;67.10
40059;SHT31;25763;49.972;8.568;2023-01-28T16:26:20;2.47;67.01
40059;SHT31;25763;49.972;8.568;2023-01-28T16:28:46;2.61;67.95
40059;SHT31;25763;49.972;8.568;2023-01-28T16:31:11;2.70;68.74
40059;SHT31;25763;49.972;8.568;2023-01-28T16:33:36;2.70;68.58
40059;SHT31;25763;49.972;8.568;2023-01-28T16:36:02;2.57;66.85
40059;SHT31;25763;49.972;8.568;2023-01-28T16:38:27;2.56;67.69
40059;SHT31;25763;49.972;8.568;2023-01-28T16:40:52;2.63;67.96
40059;SHT31;25763;49.972;8.568;2023-01-28T16:43:18;2.71;69.07
40059;SHT31;25763;49.972;8.568;2023-01-28T16:45:43;2.77;69.48
40059;SHT31;25763;49.972;8.568;2023-01-28T16:48:10;2.75;67.76
40059;SHT31;25763;49.972;8.568;2023-01-28T16:50:39;2.77;68.09
40059;SHT31;25763;49.972;8.568;2023-01-28T16:53:11;2.53;66.81
40059;SHT31;25763;49.972;8.568;2023-01-28T16:55:41;2.54;67.47
40059;SHT31;25763;49.972;8.568;2023-01-28T16:58:07;2.47;67.53
40059;SHT31;25763;49.972;8.568;2023-01-28T17:00:33;2.54;67.76
40059;SHT31;25763;49.972;8.568;2023-01-28T17:03:00;2.45;67.48
40059;SHT31;25763;49.972;8.568;2023-01-28T17:05:26;2.52;68.25
40059;SHT31;25763;49.972;8.568;2023-01-28T17:07:51;2.42;68.31
40059;SHT31;25763;49.972;8.568;2023-01-28T17:10:19;2.43;68.46
40059;SHT31;25763;49.972;8.568;2023-01-28T17:12:46;2.36;68.13
40059;SHT31;25763;49.972;8.568;2023-01-28T17:15:12;2.39;68.40
40059;SHT31;25763;49.972;8.568;2023-01-28T17:17:37;2.22;67.08
40059;SHT31;25763;49.972;8.568;2023-01-28T17:20:03;2.16;67.66
40059;SHT31;25763;49.972;8.568;2023-01-28T17:22:28;2.19;68.02
40059;SHT31;25763;49.972;8.568;2023-01-28T17:24:54;2.28;67.69
40059;SHT31;25763;49.972;8.568;2023-01-28T17:27:19;2.36;67.77
40059;SHT31;25763;49.972;8.568;2023-01-28T17:29:44;2.43;68.40
40059;SHT31;25763;49.972;8.568;2023-01-28T17:32:10;2.47;67.53
40059;SHT31;25763;49.972;8.568;2023-01-28T17:34:35;2.30;65.69
40059;SHT31;25763;49.972;8.568;2023-01-28T17:37:00;2.35;66.21
40059;SHT31;25763;49.972;8.568;2023-01-28T17:39:26;2.35;66.60
40059;SHT31;25763;49.972;8.568;2023-01-28T17:41:51;2.23;66.38
40059;SHT31;25763;49.972;8.568;2023-01-28T17:44:17;2.21;66.45
40059;SHT31;25763;49.972;8.568;2023-01-28T17:46:43;2.11;66.56
40059;SHT31;25763;49.972;8.568;2023-01-28T17:49:09;2.15;65.51
40059;SHT31;25763;49.972;8.568;2023-01-28T17:51:34;2.09;65.75
40059;SHT31;25763;49.972;8.568;2023-01-28T17:54:00;2.11;65.69
40059;SHT31;25763;49.972;8.568;2023-01-28T17:56:27;2.13;66.36
40059;SHT31;25763;49.972;8.568;2023-01-28T17:59:00;2.11;66.36
40059;SHT31;25763;49.972;8.568;2023-01-28T18:01:28;2.06;67.13